Time;durP1;ratioP1;P1;durP2;ratioP2;P2;SDS_P1;SDS_P2;PMS_P1;PMS_P2;Temp;Humidity;BMP_temperature;BMP_pressure;BME280_temperature;BME280_humidity;BME280_pressure;Samples;Min_cycle;Max_cycle;Signal;HPM_P1;HPM_P2
2021/12/20 00:02:18;;;;;;;1.37;1.27;;;1.70;99.90;;;;;;4976030;28;20182;-71
2021/12/20 00:04:46;;;;;;;0.70;0.70;;;1.60;99.90;;;;;;4974419;28;20186;-69
2021/12/20 00:07:12;;;;;;;1.10;0.90;;;1.60;99.90;;;;;;4972549;28;20209;-69
2021/12/20 00:09:37;;;;;;;1.33;1.00;;;1.70;99.90;;;;;;4972305;28;20409;-68
2021/12/20 00:12:03;;;;;;;1.00;0.87;;;1.70;99.90;;;;;;4972331;28;20201;-69
2021/12/20 00:14:28;;;;;;;4.57;0.93;;;1.70;99.90;;;;;;4972285;28;20176;-69
2021/12/20 00:16:54;;;;;;;0.90;0.70;;;1.60;99.90;;;;;;4971989;28;20462;-68
2021/12/20 00:19:19;;;;;;;0.70;0.70;;;1.60;99.90;;;;;;4972229;28;20463;-68
2021/12/20 00:21:45;;;;;;;1.37;1.27;;;1.50;99.90;;;;;;4972113;28;20185;-69
2021/12/20 00:24:10;;;;;;;0.80;0.80;;;1.50;99.90;;;;;;4972322;28;20170;-70
2021/12/20 00:26:36;;;;;;;0.80;0.80;;;1.50;99.90;;;;;;4971815;28;20272;-67
2021/12/20 00:29:01;;;;;;;1.00;0.90;;;1.40;99.90;;;;;;4972173;28;20253;-69
2021/12/20 00:31:27;;;;;;;4.90;1.20;;;1.40;99.90;;;;;;4972513;28;20632;-70
2021/12/20 00:33:52;;;;;;;0.90;0.90;;;1.50;99.90;;;;;;4965478;28;20301;-70
2021/12/20 00:36:21;;;;;;;0.60;0.60;;;1.50;99.90;;;;;;4952377;28;20751;-68
2021/12/20 00:41:33;;;;;;;3.03;0.93;;;1.40;99.90;;;;;;4972238;28;20404;-69
2021/12/20 00:43:59;;;;;;;0.60;0.60;;;1.30;99.90;;;;;;4972115;28;20778;-70
2021/12/20 00:46:25;;;;;;;8.10;1.47;;;1.40;99.90;;;;;;4971575;28;20190;-69
2021/12/20 00:48:51;;;;;;;3.10;1.97;;;1.50;99.90;;;;;;4971836;28;20925;-69
2021/12/20 00:51:16;;;;;;;0.70;0.70;;;1.40;99.90;;;;;;4971447;28;20453;-73
2021/12/20 00:53:42;;;;;;;0.70;0.70;;;1.40;99.90;;;;;;4971608;28;20205;-69
2021/12/20 00:56:07;;;;;;;0.63;0.63;;;1.30;99.90;;;;;;4971386;28;20196;-69
2021/12/20 00:58:33;;;;;;;1.07;0.80;;;1.30;99.90;;;;;;4971531;28;20676;-69
2021/12/20 01:00:58;;;;;;;0.60;0.60;;;1.40;99.90;;;;;;4971770;28;20178;-69
2021/12/20 01:03:26;;;;;;;1.63;0.80;;;1.40;99.90;;;;;;4972121;28;20564;-70
2021/12/20 01:05:51;;;;;;;0.80;0.80;;;1.40;99.90;;;;;;4971544;28;20201;-69
2021/12/20 01:08:18;;;;;;;5.43;0.80;;;1.40;99.90;;;;;;4971794;28;20411;-69
2021/12/20 01:10:50;;;;;;;0.80;0.80;;;1.40;99.90;;;;;;4971519;28;20165;-69
2021/12/20 01:13:18;;;;;;;0.60;0.60;;;1.40;99.90;;;;;;4971584;28;20463;-69
2021/12/20 01:15:49;;;;;;;0.60;0.60;;;1.30;99.90;;;;;;4971413;28;20421;-69
2021/12/20 01:18:15;;;;;;;0.87;0.87;;;1.30;99.90;;;;;;4972324;28;20520;-69
2021/12/20 01:20:43;;;;;;;0.70;0.70;;;1.20;99.90;;;;;;4975192;28;20492;-69
2021/12/20 01:23:10;;;;;;;0.70;0.70;;;1.20;99.90;;;;;;4975007;28;20420;-67
2021/12/20 01:25:36;;;;;;;0.70;0.70;;;1.20;99.90;;;;;;4974896;28;20447;-68
2021/12/20 01:28:02;;;;;;;1.20;1.00;;;1.20;99.90;;;;;;4974939;28;20405;-68
2021/12/20 01:30:28;;;;;;;0.70;0.70;;;1.20;99.90;;;;;;4975044;28;20169;-68
2021/12/20 01:32:55;;;;;;;0.83;0.83;;;1.20;99.90;;;;;;4974859;28;20542;-67
2021/12/20 01:35:23;;;;;;;0.60;0.60;;;1.20;99.90;;;;;;4974635;28;20900;-69
2021/12/20 01:37:49;;;;;;;0.80;0.80;;;1.20;99.90;;;;;;4974816;28;20393;-68
2021/12/20 01:40:16;;;;;;;0.70;0.70;;;1.20;99.90;;;;;;4974644;28;20401;-70
2021/12/20 01:42:42;;;;;;;0.70;0.70;;;1.20;99.90;;;;;;4961873;28;21004;-68
2021/12/20 01:45:17;;;;;;;0.70;0.70;;;1.20;99.90;;;;;;4974505;28;20412;-69
2021/12/20 01:47:47;;;;;;;0.93;0.93;;;1.10;99.90;;;;;;4966239;28;20807;-68
2021/12/20 01:50:21;;;;;;;0.70;0.70;;;1.10;99.90;;;;;;4955376;28;20833;-69
2021/12/20 01:52:47;;;;;;;0.80;0.80;;;1.20;99.90;;;;;;4955026;28;20465;-68
2021/12/20 01:55:19;;;;;;;2.00;0.80;;;1.10;99.90;;;;;;4953655;28;20741;-68
2021/12/20 01:57:46;;;;;;;1.63;1.00;;;1.10;99.90;;;;;;4955051;28;20958;-68
2021/12/20 02:00:32;;;;;;;0.97;0.97;;;1.10;99.90;;;;;;4965324;28;20488;-69
2021/12/20 02:03:01;;;;;;;1.43;0.93;;;1.10;99.90;;;;;;4968545;28;20791;-68
2021/12/20 02:08:14;;;;;;;0.70;0.70;;;1.00;99.90;;;;;;4974260;28;20919;-68
2021/12/20 02:10:40;;;;;;;0.70;0.70;;;1.10;99.90;;;;;;4974245;28;20927;-69
2021/12/20 02:13:05;;;;;;;0.80;0.80;;;1.00;99.90;;;;;;4974220;28;20476;-69
2021/12/20 02:15:31;;;;;;;0.67;0.67;;;1.00;99.90;;;;;;4974130;28;20421;-69
2021/12/20 02:17:56;;;;;;;3.23;1.00;;;1.00;99.90;;;;;;4974154;28;20464;-69
2021/12/20 02:20:27;;;;;;;1.83;1.03;;;1.00;99.90;;;;;;4973844;28;20196;-69
2021/12/20 02:22:55;;;;;;;0.93;0.80;;;1.00;99.90;;;;;;4974126;28;20178;-68
2021/12/20 02:25:21;;;;;;;0.60;0.60;;;1.00;99.90;;;;;;4973797;28;20757;-69
2021/12/20 02:27:46;;;;;;;0.60;0.60;;;0.90;99.90;;;;;;4973895;28;20467;-69
2021/12/20 02:30:35;;;;;;;2.10;0.80;;;0.90;99.90;;;;;;4971172;28;20548;-69
2021/12/20 02:38:30;;;;;;;0.63;0.63;;;0.90;99.90;;;;;;4974157;28;20404;-68
2021/12/20 02:41:12;;;;;;;0.60;0.60;;;0.90;99.90;;;;;;4973998;28;20413;-68
2021/12/20 02:43:41;;;;;;;3.43;1.63;;;0.90;99.90;;;;;;4973918;28;20409;-69
2021/12/20 02:49:11;;;;;;;0.70;0.70;;;0.80;99.90;;;;;;4962047;28;20483;-69
2021/12/20 02:51:37;;;;;;;0.60;0.60;;;0.80;99.90;;;;;;4973702;28;20412;-68
2021/12/20 02:54:05;;;;;;;0.70;0.70;;;0.80;99.90;;;;;;4973582;28;20460;-69
2021/12/20 02:56:31;;;;;;;0.70;0.70;;;0.80;99.90;;;;;;4973275;28;20433;-69
2021/12/20 02:58:57;;;;;;;0.70;0.70;;;0.80;99.90;;;;;;4973710;28;20413;-69
2021/12/20 03:01:23;;;;;;;0.80;0.80;;;0.80;99.90;;;;;;4973589;28;20227;-69
2021/12/20 03:03:51;;;;;;;1.43;1.10;;;0.80;99.90;;;;;;4973569;28;20656;-69
2021/12/20 03:06:35;;;;;;;0.60;0.60;;;0.80;99.90;;;;;;4973558;28;20539;-70
2021/12/20 03:09:01;;;;;;;0.60;0.60;;;0.80;99.90;;;;;;4973949;28;20483;-69
2021/12/20 03:11:27;;;;;;;0.60;0.60;;;0.70;99.90;;;;;;4973161;28;20416;-69
2021/12/20 03:14:05;;;;;;;0.70;0.70;;;0.70;99.90;;;;;;4974171;28;20453;-68
2021/12/20 03:16:31;;;;;;;0.60;0.60;;;0.70;99.90;;;;;;4973781;28;20501;-68
2021/12/20 03:18:56;;;;;;;0.67;0.67;;;0.70;99.90;;;;;;4973794;28;20927;-69
2021/12/20 03:21:22;;;;;;;1.37;1.37;;;0.70;99.90;;;;;;4974319;28;20655;-69
2021/12/20 03:23:47;;;;;;;0.60;0.60;;;0.60;99.90;;;;;;4974964;28;20185;-68
2021/12/20 03:26:13;;;;;;;0.73;0.73;;;0.70;99.90;;;;;;4972838;28;20745;-69
2021/12/20 03:28:38;;;;;;;0.80;0.80;;;0.70;99.90;;;;;;4973898;28;20641;-68
2021/12/20 03:31:04;;;;;;;0.60;0.60;;;0.60;99.90;;;;;;4973692;28;20173;-69
2021/12/20 03:33:29;;;;;;;0.70;0.70;;;0.60;99.90;;;;;;4971832;28;20201;-68
2021/12/20 03:35:55;;;;;;;0.90;0.80;;;0.70;99.90;;;;;;4972821;28;20221;-69
2021/12/20 03:38:20;;;;;;;0.60;0.60;;;0.60;99.90;;;;;;4972691;28;20169;-68
2021/12/20 03:40:46;;;;;;;1.53;0.80;;;0.60;99.90;;;;;;4972171;28;20703;-69
2021/12/20 03:43:12;;;;;;;1.70;1.60;;;0.60;99.90;;;;;;4972714;28;20182;-67
2021/12/20 03:45:38;;;;;;;1.10;1.00;;;0.50;99.90;;;;;;4972440;28;20192;-67
2021/12/20 03:48:04;;;;;;;0.67;0.67;;;0.60;99.90;;;;;;4972588;28;20405;-68
2021/12/20 03:50:29;;;;;;;0.70;0.70;;;0.60;99.90;;;;;;4972469;28;20166;-68
2021/12/20 03:52:55;;;;;;;0.80;0.80;;;0.60;99.90;;;;;;4972702;28;20459;-68
2021/12/20 03:55:20;;;;;;;1.00;0.90;;;0.60;99.90;;;;;;4972543;28;20205;-69
2021/12/20 03:57:46;;;;;;;0.60;0.60;;;0.60;99.90;;;;;;4972597;28;20178;-68
2021/12/20 04:00:14;;;;;;;0.63;0.63;;;0.60;99.90;;;;;;4972451;28;20607;-68
2021/12/20 04:02:43;;;;;;;0.90;0.90;;;0.60;99.90;;;;;;4972415;28;20636;-69
2021/12/20 04:05:10;;;;;;;1.73;0.90;;;0.50;99.90;;;;;;4972027;28;20404;-69
2021/12/20 04:07:36;;;;;;;2.50;1.00;;;0.50;99.90;;;;;;4972406;28;20405;-69
2021/12/20 04:10:02;;;;;;;2.20;0.93;;;0.50;99.90;;;;;;4972387;28;20472;-69
2021/12/20 04:12:27;;;;;;;0.70;0.70;;;0.50;99.90;;;;;;4972070;28;20209;-69
2021/12/20 04:14:53;;;;;;;1.97;1.77;;;0.50;99.90;;;;;;4972136;28;20411;-71
2021/12/20 04:17:18;;;;;;;1.07;1.03;;;0.50;99.90;;;;;;4971893;28;20197;-69
2021/12/20 04:19:44;;;;;;;3.70;1.00;;;0.50;99.90;;;;;;4972525;28;20169;-68
2021/12/20 04:22:10;;;;;;;0.80;0.80;;;0.50;99.90;;;;;;4972098;28;20174;-68
2021/12/20 04:24:35;;;;;;;0.90;0.80;;;0.50;99.90;;;;;;4972110;28;20174;-69
2021/12/20 04:27:01;;;;;;;0.80;0.80;;;0.40;99.90;;;;;;4971917;28;20431;-67
2021/12/20 04:29:28;;;;;;;0.73;0.73;;;0.40;99.90;;;;;;4972062;28;20652;-68
2021/12/20 04:31:54;;;;;;;0.77;0.73;;;0.40;99.90;;;;;;4972092;28;20260;-68
2021/12/20 04:34:20;;;;;;;0.80;0.80;;;0.40;99.90;;;;;;4970717;28;20445;-69
2021/12/20 04:36:53;;;;;;;0.70;0.70;;;0.40;99.90;;;;;;4966640;28;20338;-68
2021/12/20 04:39:22;;;;;;;0.60;0.60;;;0.40;99.90;;;;;;4965023;28;20166;-67
2021/12/20 04:41:47;;;;;;;0.70;0.70;;;0.30;99.90;;;;;;4971958;28;20437;-68
2021/12/20 04:44:13;;;;;;;0.90;0.90;;;0.40;99.90;;;;;;4971917;28;20444;-67
2021/12/20 04:46:39;;;;;;;1.47;1.37;;;0.40;99.90;;;;;;4971552;28;20567;-68
2021/12/20 04:49:04;;;;;;;0.70;0.70;;;0.40;99.90;;;;;;4972052;28;20248;-68
2021/12/20 04:51:30;;;;;;;0.80;0.80;;;0.30;99.90;;;;;;4971814;28;20188;-67
2021/12/20 04:53:55;;;;;;;1.03;1.03;;;0.40;99.90;;;;;;4973667;28;20225;-67
2021/12/20 04:56:21;;;;;;;0.60;0.60;;;0.30;99.90;;;;;;4975168;28;20253;-67
2021/12/20 04:58:47;;;;;;;0.70;0.70;;;0.30;99.90;;;;;;4975803;28;20178;-68
2021/12/20 05:01:12;;;;;;;1.97;0.97;;;0.30;99.90;;;;;;4975553;28;20256;-67
2021/12/20 05:03:38;;;;;;;0.83;0.83;;;0.30;99.90;;;;;;4975356;28;20190;-67
2021/12/20 05:06:03;;;;;;;2.53;2.00;;;0.30;99.90;;;;;;4990399;28;20228;-68
2021/12/20 05:08:34;;;;;;;1.33;1.23;;;0.20;99.90;;;;;;4975601;28;20607;-68
2021/12/20 05:11:03;;;;;;;0.70;0.70;;;0.20;99.90;;;;;;4975642;28;20181;-68
2021/12/20 05:13:29;;;;;;;0.77;0.77;;;0.30;99.90;;;;;;4975261;28;20491;-68
2021/12/20 05:15:54;;;;;;;2.00;1.07;;;0.30;99.90;;;;;;4975055;28;20464;-68
2021/12/20 05:18:20;;;;;;;0.70;0.70;;;0.20;99.90;;;;;;4975401;28;20170;-68
2021/12/20 05:20:45;;;;;;;1.00;0.90;;;0.20;99.90;;;;;;4975254;28;20176;-67
2021/12/20 05:23:11;;;;;;;1.50;0.87;;;0.20;99.90;;;;;;4971097;28;20560;-68
2021/12/20 05:25:37;;;;;;;0.80;0.80;;;0.20;99.90;;;;;;4966172;28;20575;-67
2021/12/20 05:28:03;;;;;;;4.83;1.37;;;0.20;99.90;;;;;;4955665;28;20174;-68
2021/12/20 05:30:29;;;;;;;0.70;0.70;;;0.30;99.90;;;;;;4970504;28;20942;-66
2021/12/20 05:32:55;;;;;;;0.70;0.70;;;0.30;99.90;;;;;;4975431;28;20460;-68
2021/12/20 05:35:21;;;;;;;1.17;1.07;;;0.20;99.90;;;;;;4974736;28;20627;-68
2021/12/20 05:37:47;;;;;;;0.60;0.60;;;0.20;99.90;;;;;;4974811;28;20244;-67
2021/12/20 05:40:14;;;;;;;3.70;0.97;;;0.30;99.90;;;;;;4975150;28;20544;-68
2021/12/20 05:42:40;;;;;;;0.70;0.70;;;0.20;99.90;;;;;;4974561;28;20421;-69
2021/12/20 05:45:06;;;;;;;1.30;1.20;;;0.20;99.90;;;;;;4974419;28;20737;-68
2021/12/20 05:47:32;;;;;;;0.70;0.70;;;0.20;99.90;;;;;;4974749;28;20196;-71
2021/12/20 05:49:57;;;;;;;1.00;0.90;;;0.30;99.90;;;;;;4974602;28;20448;-69
2021/12/20 05:52:23;;;;;;;2.93;0.90;;;0.30;99.90;;;;;;4974972;28;20198;-69
2021/12/20 05:54:48;;;;;;;8.83;0.90;;;0.30;99.90;;;;;;4974549;28;20546;-68
2021/12/20 05:57:14;;;;;;;0.90;0.90;;;0.30;99.90;;;;;;4974823;28;20189;-68
2021/12/20 05:59:40;;;;;;;0.70;0.70;;;0.20;99.90;;;;;;4976866;28;20373;-69
2021/12/20 06:02:05;;;;;;;1.27;1.17;;;0.30;99.90;;;;;;4978106;28;20166;-69
2021/12/20 06:04:31;;;;;;;1.20;1.10;;;0.20;99.90;;;;;;4997081;23;20564;-68
2021/12/20 06:06:57;;;;;;;0.90;0.90;;;0.30;99.90;;;;;;4973825;28;20182;-70
2021/12/20 06:09:22;;;;;;;1.43;1.37;;;0.40;99.90;;;;;;4972875;28;20594;-70
2021/12/20 06:11:48;;;;;;;4.90;2.80;;;0.40;99.90;;;;;;4974001;28;20166;-69
2021/12/20 06:14:14;;;;;;;3.27;3.07;;;0.40;99.90;;;;;;4973731;28;20644;-69
2021/12/20 06:16:39;;;;;;;0.67;0.67;;;0.50;99.90;;;;;;4974009;28;20170;-70
2021/12/20 06:19:05;;;;;;;0.77;0.77;;;0.40;99.90;;;;;;4974163;28;20185;-69
2021/12/20 06:21:30;;;;;;;0.80;0.73;;;0.40;99.90;;;;;;4974047;28;20184;-69
2021/12/20 06:23:56;;;;;;;2.30;1.57;;;0.40;99.90;;;;;;4974116;28;20229;-69
2021/12/20 06:26:23;;;;;;;0.63;0.63;;;0.40;99.90;;;;;;4974602;28;20538;-69
2021/12/20 06:28:50;;;;;;;0.80;0.80;;;0.40;99.90;;;;;;4974031;28;20264;-69
2021/12/20 06:31:17;;;;;;;1.87;1.17;;;0.50;99.90;;;;;;4973621;28;20773;-69
2021/12/20 06:33:43;;;;;;;4.63;1.00;;;0.50;99.90;;;;;;4973479;28;20476;-69
2021/12/20 06:36:08;;;;;;;2.77;0.83;;;0.50;99.90;;;;;;4973548;28;20779;-69
2021/12/20 06:38:35;;;;;;;0.90;0.90;;;0.40;99.90;;;;;;4973299;28;20421;-68
2021/12/20 06:41:01;;;;;;;0.70;0.70;;;0.40;99.90;;;;;;4973362;28;20552;-69
2021/12/20 06:43:27;;;;;;;2.03;1.13;;;0.30;99.90;;;;;;4973101;28;20444;-68
2021/12/20 06:45:52;;;;;;;0.70;0.70;;;0.40;99.90;;;;;;4973107;28;20742;-69
2021/12/20 06:48:18;;;;;;;1.00;1.00;;;0.50;99.90;;;;;;4973085;28;20188;-69
2021/12/20 06:50:44;;;;;;;1.80;1.70;;;0.40;99.90;;;;;;4973112;28;20182;-68
2021/12/20 06:53:09;;;;;;;0.60;0.60;;;0.40;99.90;;;;;;4972947;28;20248;-69
2021/12/20 06:55:36;;;;;;;1.00;1.00;;;0.30;99.90;;;;;;4972908;28;20417;-68
2021/12/20 06:58:02;;;;;;;0.60;0.60;;;0.30;99.90;;;;;;4972950;28;20178;-69
2021/12/20 07:00:28;;;;;;;0.90;0.70;;;0.40;99.90;;;;;;4971681;28;20441;-68
2021/12/20 07:02:54;;;;;;;1.30;1.20;;;0.40;99.90;;;;;;4961763;28;20844;-69
2021/12/20 07:05:21;;;;;;;1.63;1.20;;;0.40;99.90;;;;;;4972464;28;20201;-70
2021/12/20 07:07:46;;;;;;;0.93;0.77;;;0.40;99.90;;;;;;4959265;28;20813;-68
2021/12/20 07:10:12;;;;;;;0.70;0.70;;;0.80;99.90;;;;;;4953273;28;20425;-69
2021/12/20 07:12:38;;;;;;;1.07;0.97;;;0.80;99.90;;;;;;4953147;28;20272;-69
2021/12/20 07:15:05;;;;;;;3.80;1.90;;;0.70;99.90;;;;;;4953261;28;20187;-70
2021/12/20 07:17:31;;;;;;;1.53;1.43;;;0.60;99.90;;;;;;4952825;28;20429;-69
2021/12/20 07:19:59;;;;;;;1.77;1.67;;;0.50;99.90;;;;;;4966246;28;20417;-68
2021/12/20 07:22:25;;;;;;;1.37;1.30;;;0.40;99.90;;;;;;4972435;28;20174;-69
2021/12/20 07:24:50;;;;;;;0.67;0.67;;;0.30;99.90;;;;;;4972297;28;20803;-68
2021/12/20 07:27:18;;;;;;;2.53;1.57;;;0.40;99.90;;;;;;4972452;28;20252;-68
2021/12/20 07:29:44;;;;;;;1.13;1.00;;;0.50;99.90;;;;;;4972770;28;20174;-68
2021/12/20 07:32:11;;;;;;;3.33;1.17;;;0.40;99.90;;;;;;4972640;28;20521;-68
2021/12/20 07:34:38;;;;;;;0.80;0.80;;;0.30;99.90;;;;;;4972458;28;21014;-69
2021/12/20 07:37:04;;;;;;;1.40;1.40;;;0.40;99.90;;;;;;4971585;28;20411;-70
2021/12/20 07:39:30;;;;;;;1.20;1.10;;;0.40;99.90;;;;;;4973031;28;20472;-69
2021/12/20 07:41:56;;;;;;;1.07;1.07;;;0.50;99.90;;;;;;4972967;28;20900;-69
2021/12/20 07:44:22;;;;;;;0.90;0.90;;;0.60;99.90;;;;;;4972556;28;20186;-70
2021/12/20 07:46:48;;;;;;;1.00;1.00;;;0.60;99.90;;;;;;4973818;28;20241;-70
2021/12/20 07:49:14;;;;;;;1.30;0.90;;;0.60;99.90;;;;;;4973753;28;20437;-69
2021/12/20 07:51:39;;;;;;;2.87;1.47;;;0.70;99.90;;;;;;4972415;28;20308;-69
2021/12/20 07:54:05;;;;;;;2.43;2.30;;;0.60;99.90;;;;;;4971973;28;20213;-69
2021/12/20 07:56:30;;;;;;;1.93;1.83;;;0.60;99.90;;;;;;4971657;28;20173;-69
2021/12/20 07:58:56;;;;;;;1.30;1.30;;;0.70;99.90;;;;;;4971849;28;20209;-69
2021/12/20 08:01:21;;;;;;;1.93;0.83;;;0.70;99.90;;;;;;4972017;28;20170;-69
2021/12/20 08:03:47;;;;;;;0.90;0.90;;;0.70;99.90;;;;;;4972066;28;20294;-69
2021/12/20 08:06:13;;;;;;;2.87;1.10;;;0.70;99.90;;;;;;4971898;28;20510;-70
2021/12/20 08:08:40;;;;;;;1.10;1.00;;;0.60;99.90;;;;;;4972095;28;20173;-70
2021/12/20 08:11:06;;;;;;;1.13;1.13;;;1.20;99.90;;;;;;4972160;28;20176;-70
2021/12/20 08:13:32;;;;;;;1.20;1.10;;;1.80;99.90;;;;;;4972161;28;20456;-70
2021/12/20 08:15:58;;;;;;;1.00;0.80;;;1.10;99.90;;;;;;4968014;28;20185;-69
2021/12/20 08:18:23;;;;;;;0.90;0.80;;;0.90;99.90;;;;;;4972269;28;20416;-74
2021/12/20 08:20:49;;;;;;;3.13;1.27;;;0.80;99.90;;;;;;4972467;28;20290;-70
2021/12/20 08:23:14;;;;;;;0.90;0.90;;;0.80;99.90;;;;;;4954127;28;20360;-69
2021/12/20 08:25:40;;;;;;;0.60;0.60;;;0.80;99.90;;;;;;4952849;29;20488;-70
2021/12/20 08:28:09;;;;;;;0.60;0.60;;;0.80;99.90;;;;;;4974469;28;20177;-69
2021/12/20 08:30:34;;;;;;;0.73;0.73;;;0.80;99.90;;;;;;4975668;28;20177;-68
2021/12/20 08:33:00;;;;;;;1.93;1.77;;;0.90;99.90;;;;;;4969571;28;20458;-68
2021/12/20 08:35:26;;;;;;;1.30;0.90;;;1.10;99.90;;;;;;4969358;28;20285;-68
2021/12/20 08:37:53;;;;;;;1.20;1.10;;;1.40;99.90;;;;;;4959313;28;20170;-68
2021/12/20 08:40:20;;;;;;;1.40;1.30;;;1.50;99.90;;;;;;4957240;28;20507;-68
2021/12/20 08:42:46;;;;;;;1.03;0.80;;;1.40;99.90;;;;;;4956832;28;20414;-68
2021/12/20 08:45:15;;;;;;;0.80;0.70;;;1.40;99.90;;;;;;4975165;28;20563;-68
2021/12/20 08:47:41;;;;;;;1.50;1.33;;;1.40;99.90;;;;;;4975118;28;20424;-68
2021/12/20 08:50:12;;;;;;;4.87;1.60;;;1.50;99.90;;;;;;4975322;28;20417;-69
2021/12/20 08:52:37;;;;;;;0.70;0.70;;;1.50;99.90;;;;;;4975103;28;20445;-68
2021/12/20 08:55:05;;;;;;;7.33;1.47;;;1.70;99.90;;;;;;4975130;28;20808;-69
2021/12/20 08:57:31;;;;;;;0.97;0.80;;;1.70;99.90;;;;;;4975373;28;20166;-69
2021/12/20 08:59:56;;;;;;;2.30;1.40;;;1.50;99.90;;;;;;4975433;28;20413;-68
2021/12/20 09:02:22;;;;;;;2.30;1.33;;;1.50;99.90;;;;;;4976311;28;20177;-68
2021/12/20 09:04:47;;;;;;;3.67;1.50;;;1.60;99.90;;;;;;4974062;28;20508;-68
2021/12/20 09:07:16;;;;;;;0.93;0.93;;;1.50;99.90;;;;;;4974933;28;20652;-68
2021/12/20 09:09:44;;;;;;;2.30;1.40;;;1.60;99.90;;;;;;4975332;28;20182;-68
2021/12/20 09:12:10;;;;;;;1.43;1.33;;;1.60;99.90;;;;;;4971223;28;20919;-67
2021/12/20 09:14:36;;;;;;;2.93;1.00;;;1.50;99.90;;;;;;4974448;28;20444;-67
2021/12/20 09:17:03;;;;;;;2.47;1.70;;;1.60;99.90;;;;;;4974239;28;20181;-68
2021/12/20 09:19:29;;;;;;;1.43;1.27;;;1.60;99.90;;;;;;4974649;28;20412;-68
2021/12/20 09:21:54;;;;;;;1.80;1.20;;;1.60;99.90;;;;;;4972791;28;20416;-68
2021/12/20 09:24:20;;;;;;;1.83;1.70;;;1.70;99.90;;;;;;4973055;28;20784;-68
2021/12/20 09:26:45;;;;;;;1.93;1.10;;;1.70;99.90;;;;;;4974395;28;20580;-68
2021/12/20 09:29:11;;;;;;;0.60;0.60;;;1.70;99.90;;;;;;4975019;28;20204;-69
2021/12/20 09:31:36;;;;;;;1.43;1.00;;;1.70;99.90;;;;;;4969042;28;20247;-69
2021/12/20 09:34:02;;;;;;;4.10;2.50;;;1.70;99.90;;;;;;4974483;28;20243;-68
2021/12/20 09:36:29;;;;;;;1.63;1.53;;;1.80;99.90;;;;;;4976796;28;20224;-69
2021/12/20 09:38:59;;;;;;;0.70;0.70;;;1.80;99.90;;;;;;4976052;28;20204;-68
2021/12/20 09:44:01;;;;;;;0.83;0.83;;;1.80;99.90;;;;;;4974273;28;20437;-67
2021/12/20 09:46:28;;;;;;;1.30;1.20;;;1.80;99.90;;;;;;4974057;28;20891;-68
2021/12/20 09:48:54;;;;;;;0.90;0.90;;;1.90;99.90;;;;;;4974131;28;20522;-69
2021/12/20 09:51:20;;;;;;;2.00;1.37;;;1.90;99.90;;;;;;4973894;28;20896;-69
2021/12/20 09:53:45;;;;;;;0.70;0.70;;;1.90;99.90;;;;;;4974562;28;20453;-68
2021/12/20 09:56:11;;;;;;;0.97;0.87;;;1.90;99.90;;;;;;4974192;28;20173;-69
2021/12/20 09:58:40;;;;;;;1.30;1.20;;;2.00;99.90;;;;;;4975375;28;20166;-68
2021/12/20 10:01:10;;;;;;;1.67;0.80;;;2.00;99.90;;;;;;4978512;28;20170;-69
2021/12/20 10:03:36;;;;;;;1.13;1.00;;;2.10;99.90;;;;;;4977762;28;20453;-69
2021/12/20 10:06:03;;;;;;;1.10;1.00;;;2.10;99.90;;;;;;4978516;28;20888;-68
2021/12/20 10:08:33;;;;;;;1.83;1.17;;;2.20;99.90;;;;;;4975352;28;20460;-69
2021/12/20 10:11:03;;;;;;;1.33;1.23;;;2.30;99.90;;;;;;4974366;28;20424;-68
2021/12/20 10:13:35;;;;;;;1.30;1.10;;;2.30;99.90;;;;;;4974257;28;20452;-68
2021/12/20 10:16:04;;;;;;;4.87;1.00;;;2.30;99.90;;;;;;4974582;28;20718;-70
2021/12/20 10:18:35;;;;;;;2.53;2.33;;;2.40;99.90;;;;;;4974133;28;20821;-68
2021/12/20 10:21:02;;;;;;;1.77;1.17;;;2.50;99.90;;;;;;4974632;28;20386;-70
2021/12/20 10:23:30;;;;;;;5.07;1.90;;;2.50;99.90;;;;;;4974058;28;20453;-68
2021/12/20 10:25:58;;;;;;;0.90;0.90;;;2.50;99.90;;;;;;4981067;28;20419;-68
2021/12/20 10:28:30;;;;;;;12.30;1.33;;;2.50;99.90;;;;;;4979705;28;20420;-68
2021/12/20 10:30:58;;;;;;;2.20;0.90;;;2.50;99.90;;;;;;4979120;28;20433;-68
2021/12/20 10:33:25;;;;;;;2.40;1.40;;;2.40;99.90;;;;;;4980458;28;20547;-68
2021/12/20 10:35:53;;;;;;;2.13;1.93;;;2.80;99.90;;;;;;4976161;28;20799;-68
2021/12/20 10:38:21;;;;;;;0.70;0.70;;;2.70;99.90;;;;;;4977527;28;20437;-70
2021/12/20 10:40:48;;;;;;;1.77;1.33;;;2.70;99.90;;;;;;4977458;28;20440;-69
2021/12/20 10:43:17;;;;;;;1.37;1.30;;;2.70;99.90;;;;;;4977637;28;21005;-68
2021/12/20 10:45:43;;;;;;;1.00;0.90;;;2.70;99.90;;;;;;4977482;28;20788;-70
2021/12/20 10:48:11;;;;;;;2.50;0.90;;;2.80;99.90;;;;;;4976543;28;20405;-69
2021/12/20 10:50:42;;;;;;;1.23;1.13;;;2.90;99.90;;;;;;4975644;28;20267;-69
2021/12/20 10:53:24;;;;;;;1.00;1.00;;;3.00;99.90;;;;;;4976373;28;20456;-69
2021/12/20 10:56:00;;;;;;;0.80;0.80;;;3.00;99.90;;;;;;4973977;28;20841;-70
2021/12/20 10:58:30;;;;;;;1.10;0.87;;;3.00;99.90;;;;;;4975274;28;20466;-73
2021/12/20 11:01:22;;;;;;;2.10;1.50;;;3.00;99.90;;;;;;4975498;28;20571;-71
2021/12/20 11:04:15;;;;;;;2.47;1.43;;;3.00;99.90;;;;;;4974951;28;20514;-70
2021/12/20 11:07:02;;;;;;;3.10;1.20;;;3.10;99.90;;;;;;4974596;28;20857;-71
2021/12/20 11:09:32;;;;;;;3.53;1.13;;;3.20;99.90;;;;;;4974276;28;20397;-72
2021/12/20 11:12:01;;;;;;;1.47;1.30;;;3.10;99.90;;;;;;4971003;28;20425;-71
2021/12/20 11:14:36;;;;;;;0.87;0.87;;;3.10;99.90;;;;;;4974715;28;20799;-72
2021/12/20 11:17:04;;;;;;;1.87;1.10;;;3.20;99.90;;;;;;4975876;28;20442;-70
2021/12/20 11:19:36;;;;;;;5.13;3.93;;;3.20;99.90;;;;;;4975360;28;20413;-71
2021/12/20 11:22:08;;;;;;;2.23;1.50;;;3.60;99.90;;;;;;4975294;28;20767;-72
2021/12/20 11:24:35;;;;;;;0.80;0.70;;;3.40;99.90;;;;;;4974946;28;20924;-70
2021/12/20 11:27:06;;;;;;;3.43;0.83;;;3.40;99.90;;;;;;4975232;28;20410;-71
2021/12/20 11:29:33;;;;;;;1.73;1.00;;;3.30;99.90;;;;;;4974865;28;20530;-70
2021/12/20 11:32:00;;;;;;;0.80;0.80;;;3.40;99.90;;;;;;4973084;28;20463;-73
2021/12/20 11:34:26;;;;;;;5.43;1.10;;;3.40;99.90;;;;;;4976753;28;20460;-70
2021/12/20 11:36:55;;;;;;;1.27;1.17;;;3.30;99.90;;;;;;4973977;28;20464;-69
2021/12/20 11:39:21;;;;;;;1.07;0.80;;;3.30;99.90;;;;;;4973386;28;20412;-71
2021/12/20 11:41:47;;;;;;;2.03;1.07;;;3.30;99.90;;;;;;4988294;28;20524;-70
2021/12/20 11:44:16;;;;;;;2.50;1.33;;;3.40;99.90;;;;;;4991553;28;20220;-70
2021/12/20 11:46:51;;;;;;;1.93;1.13;;;3.30;99.90;;;;;;4991873;28;20215;-70
2021/12/20 11:49:20;;;;;;;3.10;1.10;;;3.40;99.90;;;;;;4991980;28;20450;-70
2021/12/20 11:51:56;;;;;;;1.93;0.90;;;3.50;99.90;;;;;;4975042;28;20417;-70
2021/12/20 11:54:46;;;;;;;1.23;1.00;;;3.60;99.90;;;;;;4972118;28;20472;-70
2021/12/20 11:57:29;;;;;;;1.60;1.50;;;3.50;99.90;;;;;;4972120;28;20389;-70
2021/12/20 11:59:57;;;;;;;0.90;0.90;;;3.50;99.90;;;;;;4972047;28;20436;-70
2021/12/20 12:02:40;;;;;;;1.00;0.90;;;3.50;99.90;;;;;;4971478;28;20409;-70
2021/12/20 12:05:11;;;;;;;4.20;1.20;;;3.50;99.90;;;;;;4971869;28;20527;-70
2021/12/20 12:07:38;;;;;;;0.93;0.90;;;3.40;99.90;;;;;;4971948;28;21097;-69
2021/12/20 12:10:13;;;;;;;1.00;1.00;;;3.40;99.90;;;;;;4974499;28;20880;-70
2021/12/20 12:12:44;;;;;;;5.00;1.73;;;3.30;99.90;;;;;;4963833;28;21059;-73
2021/12/20 12:15:20;;;;;;;1.20;1.10;;;3.20;99.90;;;;;;4972621;28;20464;-70
2021/12/20 12:17:58;;;;;;;1.90;0.97;;;3.20;99.90;;;;;;4972538;28;20913;-70
2021/12/20 12:20:51;;;;;;;1.93;0.97;;;3.20;99.90;;;;;;4953341;28;20813;-70
2021/12/20 12:23:23;;;;;;;2.80;1.00;;;3.20;99.90;;;;;;4963408;28;20910;-70
2021/12/20 12:25:53;;;;;;;3.23;1.17;;;3.20;99.90;;;;;;4972450;28;20417;-71
2021/12/20 12:28:21;;;;;;;2.00;1.00;;;3.20;99.90;;;;;;4972595;28;20392;-71
2021/12/20 12:30:59;;;;;;;2.50;1.00;;;3.20;99.90;;;;;;4975553;28;20470;-70
2021/12/20 12:33:28;;;;;;;2.70;1.10;;;3.10;99.90;;;;;;4985189;28;21025;-70
2021/12/20 12:35:56;;;;;;;1.33;1.00;;;3.10;99.90;;;;;;4971952;28;20479;-70
2021/12/20 12:38:25;;;;;;;1.30;1.20;;;3.00;99.90;;;;;;4971955;28;20405;-70
2021/12/20 12:41:01;;;;;;;1.20;1.10;;;3.00;99.90;;;;;;4978620;28;20483;-70
2021/12/20 12:43:50;;;;;;;1.10;0.90;;;3.00;99.90;;;;;;4972044;28;20428;-70
2021/12/20 12:46:35;;;;;;;1.00;1.00;;;3.00;99.90;;;;;;4971865;28;20523;-70
2021/12/20 12:49:21;;;;;;;1.20;0.97;;;3.00;99.90;;;;;;4952887;29;20501;-70
2021/12/20 12:52:15;;;;;;;0.90;0.90;;;3.00;99.90;;;;;;4956893;28;20405;-70
2021/12/20 12:55:08;;;;;;;1.63;1.53;;;2.90;99.90;;;;;;4963269;28;20452;-70
2021/12/20 12:57:37;;;;;;;0.93;0.77;;;2.90;99.90;;;;;;4972321;28;20397;-70
2021/12/20 13:00:15;;;;;;;0.97;0.90;;;3.00;99.90;;;;;;4971911;28;20459;-72
2021/12/20 13:02:44;;;;;;;1.13;1.03;;;3.00;99.90;;;;;;4971925;28;20408;-69
2021/12/20 13:05:14;;;;;;;1.27;1.07;;;3.00;99.90;;;;;;4971906;28;20432;-69
2021/12/20 13:07:46;;;;;;;1.63;1.33;;;3.00;99.90;;;;;;4972110;28;20377;-70
2021/12/20 13:10:34;;;;;;;1.00;0.80;;;3.00;99.90;;;;;;4975836;28;20403;-69
2021/12/20 13:13:11;;;;;;;1.00;1.00;;;3.10;99.90;;;;;;4991434;28;20435;-69
2021/12/20 13:15:55;;;;;;;1.07;1.00;;;3.20;99.90;;;;;;4986487;28;20504;-69
2021/12/20 13:18:43;;;;;;;0.87;0.87;;;3.20;99.90;;;;;;4975838;28;20489;-70
2021/12/20 13:21:08;;;;;;;1.53;1.00;;;3.30;99.90;;;;;;4975422;28;20420;-69